| time (UTC) | temp C | wind direction | speed KPH | gust KPH | rain 1hr cm | rain 24hr cm | rain mn cm | humidity % | barometer mb |
| 20260508010132 | 12 | 176 | 0.0 | 0.0 | 0.00 | 1.40 | 1.35 | 95 | 1012.0 |
| 20260508005133 | 12 | 176 | 0.0 | 1.6 | 0.00 | 1.40 | 1.35 | 94 | 1011.8 |
| 20260508004621 | 12 | 176 | 0.0 | 0.0 | 0.00 | 1.40 | 1.35 | 94 | 1011.4 |
| 20260508003132 | 12 | 176 | 0.0 | 3.2 | 0.00 | 1.40 | 1.35 | 94 | 1011.6 |
| 20260508002131 | 12 | 176 | 1.6 | 4.8 | 0.00 | 1.40 | 1.35 | 94 | 1011.6 |
| 20260508001132 | 12 | 182 | 0.0 | 1.6 | 0.00 | 1.40 | 1.35 | 94 | 1011.9 |
| 20260508000131 | 12 | 182 | 1.6 | 4.8 | 0.00 | 1.40 | 1.35 | 94 | 1011.6 |
| 20260507235133 | 12 | 182 | 0.0 | 3.2 | 0.00 | 1.40 | 1.35 | 94 | 1011.5 |
| 20260507234609 | 12 | 182 | 0.0 | 3.2 | 0.00 | 1.40 | 1.35 | 94 | 1011.2 |
| 20260507233130 | 12 | 182 | 1.6 | 3.2 | 0.00 | 1.40 | 1.35 | 94 | 1010.9 |
| 20260507232129 | 12 | 182 | 1.6 | 4.8 | 0.00 | 1.40 | 1.35 | 94 | 1010.4 |
| 20260507231130 | 12 | 182 | 1.6 | 8.0 | 0.00 | 1.40 | 1.35 | 94 | 1010.3 |
| 20260507230127 | 12 | 196 | 1.6 | 6.4 | 0.00 | 1.40 | 1.35 | 94 | 1010.5 |
| 20260507225127 | 12 | 217 | 1.6 | 6.4 | 0.00 | 1.40 | 1.35 | 94 | 1010.3 |
| 20260507224601 | 12 | 27 | 1.6 | 8.0 | 0.00 | 1.40 | 1.35 | 94 | 1010.3 |
| 20260507223127 | 12 | 75 | 1.6 | 4.8 | 0.00 | 1.40 | 1.35 | 95 | 1010.3 |
| 20260507222126 | 12 | 87 | 3.2 | 6.4 | 0.00 | 1.40 | 1.35 | 95 | 1010.7 |
| 20260507221126 | 12 | 317 | 3.2 | 9.7 | 0.00 | 1.40 | 1.35 | 95 | 1010.8 |
| 20260507220128 | 12 | 313 | 3.2 | 8.0 | 0.00 | 1.40 | 1.35 | 95 | 1010.5 |
| 20260507215609 | 12 | 11 | 1.6 | 8.0 | 0.00 | 1.40 | 1.35 | 95 | 1010.5 |
| 20260507214127 | 12 | 357 | 3.2 | 9.7 | 0.00 | 1.40 | 1.35 | 95 | 1010.5 |
| 20260507213524 | 12 | 26 | 1.6 | 6.4 | 0.00 | 1.40 | 1.35 | 95 | 1010.2 |
| 20260507213306 | 12 | 353 | 3.2 | 9.7 | 0.00 | 1.40 | 1.35 | 95 | 1010.4 |
| 20260507211125 | 12 | 25 | 3.2 | 12.9 | 0.00 | 1.40 | 1.35 | 95 | 1010.2 |
| 20260507210126 | 12 | 19 | 3.2 | 8.0 | 0.00 | 1.40 | 1.35 | 95 | 1010.5 |
| 20260507205123 | 12 | 192 | 3.2 | 9.7 | 0.00 | 1.40 | 1.35 | 95 | 1010.1 |
| 20260507204610 | 12 | 146 | 3.2 | 9.7 | 0.00 | 1.40 | 1.35 | 95 | 1010.0 |
| 20260507203124 | 12 | 347 | 3.2 | 12.9 | 0.00 | 1.40 | 1.35 | 95 | 1010.1 |
| 20260507202123 | 12 | 344 | 4.8 | 11.3 | 0.00 | 1.40 | 1.35 | 95 | 1010.1 |
| 20260507201123 | 12 | 27 | 6.4 | 17.7 | 0.00 | 1.40 | 1.35 | 95 | 1010.0 |
| 20260507200124 | 12 | 329 | 4.8 | 14.5 | 0.03 | 1.40 | 1.35 | 95 | 1010.1 |
| 20260507195124 | 12 | 144 | 4.8 | 11.3 | 0.03 | 1.40 | 1.35 | 95 | 1010.2 |
| 20260507194122 | 12 | 0 | 4.8 | 11.3 | 0.03 | 1.40 | 1.35 | 96 | 1010.2 |
| 20260507193124 | 13 | 13 | 4.8 | 11.3 | 0.03 | 1.40 | 1.35 | 96 | 1010.4 |
| 20260507192553 | 13 | 15 | 4.8 | 9.7 | 0.03 | 1.40 | 1.35 | 95 | 1010.4 |
| 20260507191122 | 13 | 5 | 4.8 | 12.9 | 0.03 | 1.42 | 1.35 | 96 | 1010.2 |
| 20260507190119 | 13 | 17 | 3.2 | 8.0 | 0.03 | 1.45 | 1.32 | 96 | 1009.8 |
| 20260507185120 | 13 | 20 | 3.2 | 12.9 | 0.05 | 1.47 | 1.32 | 95 | 1009.7 |
| 20260507184118 | 13 | 182 | 4.8 | 12.9 | 0.05 | 1.60 | 1.32 | 95 | 1009.7 |
| 20260507183119 | 13 | 5 | 4.8 | 11.3 | 0.05 | 1.60 | 1.32 | 96 | 1009.6 |
| 20260507182119 | 13 | 44 | 4.8 | 12.9 | 0.05 | 1.60 | 1.32 | 95 | 1009.4 |
| 20260507181119 | 13 | 94 | 4.8 | 9.7 | 0.08 | 1.60 | 1.32 | 96 | 1009.6 |
| 20260507180119 | 13 | 202 | 3.2 | 12.9 | 0.05 | 1.57 | 1.30 | 96 | 1009.2 |
| 20260507175603 | 14 | 32 | 4.8 | 9.7 | 0.05 | 1.55 | 1.27 | 95 | 1010.0 |
| 20260507174119 | 14 | 23 | 4.8 | 12.9 | 0.05 | 1.55 | 1.27 | 95 | 1010.3 |
| 20260507173120 | 14 | 15 | 4.8 | 12.9 | 0.08 | 1.55 | 1.27 | 95 | 1009.8 |
| 20260507172120 | 15 | 54 | 6.4 | 17.7 | 0.08 | 1.55 | 1.27 | 95 | 1009.2 |
| 20260507171118 | 15 | 55 | 4.8 | 12.9 | 0.08 | 1.52 | 1.24 | 95 | 1008.8 |
| 20260507170117 | 15 | 11 | 4.8 | 12.9 | 0.08 | 1.52 | 1.24 | 95 | 1008.9 |
| 20260507170042 | 16 | 34 | 6.4 | 14.5 | 0.05 | 1.50 | 1.22 | 95 | 1009.0 |
| 20260507164114 | 17 | 27 | 6.4 | 16.1 | 0.05 | 1.50 | 1.22 | 96 | 1009.6 |
| 20260507163115 | 18 | 29 | 8.0 | 16.1 | 0.05 | 1.47 | 1.19 | 96 | 1009.9 |
| 20260507162112 | 19 | 348 | 1.6 | 6.4 | 0.08 | 1.47 | 1.19 | 98 | 1009.9 |
| 20260507161525 | 19 | 348 | 1.6 | 6.4 | 0.15 | 1.45 | 1.17 | 98 | 1009.8 |
| 20260507161303 | 19 | 348 | 1.6 | 3.2 | 0.10 | 1.45 | 1.17 | 98 | 1009.7 |
| 20260507155110 | 19 | 346 | 1.6 | 6.4 | 0.23 | 1.45 | 1.17 | 98 | 1009.9 |
| 20260507154111 | 19 | 346 | 1.6 | 3.2 | 0.33 | 1.45 | 1.17 | 98 | 1009.4 |
| 20260507153110 | 19 | 346 | 0.0 | 4.8 | 0.38 | 1.42 | 1.14 | 98 | 1009.6 |
| 20260507152556 | 19 | 345 | 0.0 | 3.2 | 0.38 | 1.40 | 1.12 | 98 | 1009.6 |
| 20260507151111 | 19 | 345 | 0.0 | 0.0 | 0.33 | 1.35 | 1.07 | 98 | 1009.7 |
| 20260507150111 | 19 | 345 | 0.0 | 1.6 | 0.33 | 1.30 | 1.02 | 98 | 1009.7 |
| 20260507145551 | 19 | 259 | 0.0 | 1.6 | 0.30 | 1.22 | 0.94 | 98 | 1009.9 |
| 20260507144109 | 19 | 259 | 0.0 | 0.0 | 0.20 | 1.12 | 0.84 | 98 | 1009.7 |
| 20260507143109 | 19 | 259 | 0.0 | 1.6 | 0.13 | 1.04 | 0.79 | 98 | 1009.7 |
| 20260507142109 | 19 | 259 | 0.0 | 1.6 | 0.10 | 1.02 | 0.74 | 98 | 1009.9 |
| 20260507141108 | 19 | 259 | 0.0 | 4.8 | 0.13 | 1.02 | 0.74 | 98 | 1009.8 |
| 20260507140108 | 19 | 154 | 0.0 | 1.6 | 0.13 | 0.97 | 0.69 | 98 | 1009.9 |
| 20260507135109 | 19 | 154 | 0.0 | 1.6 | 0.10 | 0.91 | 0.64 | 98 | 1010.1 |
| 20260507134109 | 19 | 154 | 0.0 | 3.2 | 0.10 | 0.91 | 0.64 | 98 | 1010.1 |
| 20260507133103 | 19 | 153 | 0.0 | 1.6 | 0.13 | 0.91 | 0.64 | 98 | 1010.0 |
| 20260507132103 | 19 | 152 | 0.0 | 3.2 | 0.13 | 0.91 | 0.64 | 98 | 1009.8 |
| 20260507131102 | 18 | 156 | 0.0 | 4.8 | 0.10 | 0.89 | 0.61 | 98 | 1010.0 |
| 20260507130100 | 18 | 156 | 0.0 | 3.2 | 0.08 | 0.84 | 0.56 | 98 | 1009.9 |
| 20260507125101 | 18 | 150 | 0.0 | 3.2 | 0.05 | 0.81 | 0.53 | 97 | 1010.1 |
| 20260507124536 | 18 | 150 | 0.0 | 0.0 | 0.05 | 0.81 | 0.53 | 97 | 1010.2 |
| 20260507123100 | 18 | 150 | 0.0 | 1.6 | 0.03 | 0.79 | 0.51 | 97 | 1010.3 |
| 20260507122507 | 18 | 150 | 0.0 | 0.0 | 0.08 | 0.79 | 0.51 | 97 | 1010.4 |
| 20260507122246 | 18 | 150 | 0.0 | 0.0 | 0.08 | 0.79 | 0.51 | 97 | 1010.3 |
| 20260507120055 | 18 | 150 | 0.0 | 0.0 | 0.05 | 0.76 | 0.48 | 97 | 1010.7 |
| 20260507115053 | 18 | 150 | 0.0 | 0.0 | 0.08 | 0.76 | 0.48 | 97 | 1010.6 |
| 20260507114055 | 18 | 150 | 0.0 | 0.0 | 0.08 | 0.76 | 0.48 | 97 | 1010.7 |
| 20260507113053 | 18 | 150 | 0.0 | 0.0 | 0.08 | 0.76 | 0.48 | 97 | 1010.8 |
| 20260507112053 | 18 | 150 | 0.0 | 1.6 | 0.03 | 0.71 | 0.46 | 97 | 1010.7 |
| 20260507111534 | 18 | 150 | 0.0 | 0.0 | 0.03 | 0.71 | 0.43 | 97 | 1010.7 |
| 20260507110055 | 18 | 150 | 0.0 | 0.0 | 0.03 | 0.71 | 0.43 | 97 | 1010.3 |
| 20260507105048 | 18 | 150 | 0.0 | 0.0 | 0.00 | 0.69 | 0.41 | 97 | 1010.3 |
| 20260507104946 | 18 | 150 | 0.0 | 1.6 | 0.00 | 0.69 | 0.41 | 97 | 1010.4 |
| 20260507104235 | 18 | 150 | 0.0 | 0.0 | 0.00 | 0.69 | 0.41 | 97 | 1010.3 |
| 20260507102047 | 18 | 150 | 0.0 | 0.0 | 0.00 | 0.69 | 0.41 | 97 | 1010.1 |
| 20260507101047 | 18 | 150 | 0.0 | 0.0 | 0.00 | 0.69 | 0.41 | 97 | 1010.3 |
| 20260507100047 | 18 | 150 | 0.0 | 0.0 | 0.00 | 0.69 | 0.41 | 97 | 1010.2 |
| 20260507095048 | 18 | 150 | 0.0 | 0.0 | 0.00 | 0.69 | 0.41 | 97 | 1010.3 |
| 20260507094047 | 18 | 150 | 0.0 | 0.0 | 0.00 | 0.69 | 0.41 | 97 | 1010.4 |
| 20260507093047 | 18 | 150 | 0.0 | 1.6 | 0.00 | 0.69 | 0.41 | 96 | 1010.2 |
| 20260507092048 | 18 | 150 | 0.0 | 1.6 | 0.00 | 0.69 | 0.41 | 96 | 1010.4 |
| 20260507091047 | 18 | 150 | 0.0 | 1.6 | 0.00 | 0.69 | 0.41 | 96 | 1010.3 |
| 20260507090533 | 18 | 150 | 0.0 | 1.6 | 0.00 | 0.69 | 0.41 | 96 | 1010.6 |
| 20260507085049 | 18 | 150 | 0.0 | 3.2 | 0.00 | 0.69 | 0.41 | 96 | 1010.6 |
| 20260507084045 | 18 | 152 | 0.0 | 3.2 | 0.00 | 0.69 | 0.41 | 96 | 1010.5 |
| 20260507083526 | 18 | 152 | 0.0 | 3.2 | 0.00 | 0.69 | 0.41 | 96 | 1011.1 |
| 20260507082551 | 18 | 152 | 0.0 | 1.6 | 0.00 | 0.69 | 0.41 | 96 | 1011.1 |
| 20260507081046 | 18 | 152 | 0.0 | 0.0 | 0.00 | 0.69 | 0.41 | 96 | 1010.8 |
| 20260507080528 | 18 | 152 | 0.0 | 3.2 | 0.00 | 0.69 | 0.41 | 96 | 1010.8 |
| 20260507075527 | 18 | 192 | 0.0 | 1.6 | 0.00 | 0.69 | 0.41 | 96 | 1011.1 |
| 20260507074045 | 18 | 196 | 0.0 | 0.0 | 0.00 | 0.69 | 0.41 | 96 | 1011.3 |
| 20260507073042 | 18 | 196 | 0.0 | 0.0 | 0.00 | 0.69 | 0.41 | 96 | 1011.4 |
| 20260507072044 | 18 | 196 | 0.0 | 1.6 | 0.00 | 0.69 | 0.41 | 96 | 1011.5 |
| 20260507071045 | 18 | 196 | 0.0 | 3.2 | 0.00 | 0.69 | 0.41 | 95 | 1011.6 |
| 20260507070044 | 18 | 192 | 0.0 | 3.2 | 0.00 | 0.69 | 0.41 | 95 | 1011.2 |
| 20260507065042 | 18 | 192 | 0.0 | 0.0 | 0.00 | 0.69 | 0.41 | 95 | 1011.8 |
| 20260507064043 | 18 | 192 | 0.0 | 0.0 | 0.03 | 0.69 | 0.41 | 95 | 1012.1 |
| 20260507063044 | 18 | 192 | 0.0 | 0.0 | 0.05 | 0.69 | 0.41 | 95 | 1012.2 |
| 20260507062044 | 18 | 192 | 0.0 | 3.2 | 0.15 | 0.69 | 0.41 | 95 | 1011.8 |
| 20260507061044 | 18 | 198 | 0.0 | 3.2 | 0.18 | 0.69 | 0.41 | 95 | 1012.1 |
| 20260507060041 | 18 | 198 | 0.0 | 1.6 | 0.18 | 0.69 | 0.41 | 95 | 1012.1 |
| 20260507055042 | 18 | 198 | 0.0 | 1.6 | 0.30 | 0.69 | 0.41 | 95 | 1012.0 |
| 20260507054519 | 18 | 198 | 1.6 | 4.8 | 0.33 | 0.66 | 0.38 | 94 | 1012.0 |
| 20260507053039 | 18 | 196 | 1.6 | 4.8 | 0.33 | 0.64 | 0.36 | 94 | 1011.8 |
| 20260507052039 | 18 | 192 | 1.6 | 4.8 | 0.25 | 0.53 | 0.28 | 94 | 1012.3 |
| 20260507051040 | 19 | 182 | 0.0 | 0.0 | 0.23 | 0.51 | 0.23 | 94 | 1012.6 |
| 20260507050038 | 19 | 182 | 1.6 | 8.0 | 0.23 | 0.51 | 0.23 | 94 | 1011.6 |
| 20260507045040 | 19 | 163 | 1.6 | 11.3 | 0.10 | 0.38 | 0.13 | 94 | 1012.4 |
| 20260507045008 | 19 | 275 | 1.6 | 3.2 | 0.05 | 0.33 | 0.05 | 93 | 1013.3 |
| 20260507043039 | 19 | 286 | 1.6 | 4.8 | 0.05 | 0.30 | 0.03 | 93 | 1013.6 |
| 20260507042038 | 19 | 146 | 0.0 | 1.6 | 0.05 | 0.28 | 0.00 | 93 | 1013.7 |
| 20260507041038 | 19 | 146 | 0.0 | 0.0 | 0.05 | 0.28 | 0.00 | 92 | 1013.3 |
| 20260507040039 | 19 | 146 | 0.0 | 0.0 | 0.05 | 0.28 | 0.00 | 92 | 1013.0 |
| 20260507035039 | 19 | 146 | 0.0 | 0.0 | 0.05 | 0.28 | 0.28 | 92 | 1012.7 |
| 20260507034035 | 19 | 146 | 0.0 | 0.0 | 0.05 | 0.28 | 0.28 | 92 | 1012.5 |
| 20260507033036 | 19 | 146 | 0.0 | 0.0 | 0.03 | 0.25 | 0.25 | 92 | 1012.8 |
| 20260507032511 | 19 | 146 | 0.0 | 0.0 | 0.00 | 0.23 | 0.23 | 91 | 1012.9 |
| 20260507031037 | 19 | 146 | 0.0 | 1.6 | 0.00 | 0.23 | 0.23 | 91 | 1012.6 |
| 20260507030033 | 20 | 146 | 0.0 | 0.0 | 0.00 | 0.23 | 0.23 | 91 | 1012.5 |
| 20260507025035 | 20 | 146 | 0.0 | 0.0 | 0.00 | 0.23 | 0.23 | 91 | 1012.3 |
| 20260507024034 | 20 | 146 | 0.0 | 0.0 | 0.00 | 0.23 | 0.23 | 91 | 1012.1 |
| 20260507023035 | 20 | 146 | 0.0 | 1.6 | 0.00 | 0.23 | 0.23 | 91 | 1012.2 |
| 20260507022035 | 20 | 146 | 1.6 | 4.8 | 0.00 | 0.23 | 0.23 | 90 | 1011.8 |
| 20260507021507 | 20 | 142 | 0.0 | 3.2 | 0.00 | 0.23 | 0.23 | 90 | 1012.0 |
| 20260507020034 | 20 | 142 | 0.0 | 0.0 | 0.00 | 0.23 | 0.23 | 90 | 1012.1 |
| 20260507015036 | 20 | 142 | 0.0 | 0.0 | 0.00 | 0.23 | 0.23 | 89 | 1012.1 |
| 20260507014524 | 20 | 142 | 0.0 | 0.0 | 0.00 | 0.23 | 0.23 | 88 | 1012.0 |
| 20260507014008 | 20 | 142 | 0.0 | 0.0 | 0.00 | 0.23 | 0.23 | 88 | 1012.1 |
| 20260507012034 | 20 | 142 | 0.0 | 0.0 | 0.00 | 0.23 | 0.23 | 88 | 1012.1 |
| 20260507011033 | 20 | 142 | 0.0 | 0.0 | 0.00 | 0.23 | 0.23 | 88 | 1011.9 |